createdAt,value
2023-04-06T00:00:36.431Z,5.17
2023-04-06T00:03:03.570Z,3.23
2023-04-06T00:05:31.613Z,3.43
2023-04-06T00:07:59.133Z,5.47
2023-04-06T00:10:27.711Z,5.73
2023-04-06T00:12:55.903Z,5.07
2023-04-06T00:15:22.940Z,4.37
2023-04-06T00:17:49.968Z,6.50
2023-04-06T00:20:17.658Z,3.67
2023-04-06T00:22:45.609Z,4.60
2023-04-06T00:25:12.548Z,5.50
2023-04-06T00:27:40.980Z,6.17
2023-04-06T00:30:08.925Z,5.23
2023-04-06T00:32:36.506Z,5.30
2023-04-06T00:35:03.900Z,6.30
2023-04-06T00:37:31.147Z,7.63
2023-04-06T00:39:58.072Z,6.50
2023-04-06T00:42:28.259Z,9.87
2023-04-06T00:44:57.931Z,7.03
2023-04-06T00:47:26.506Z,4.83
2023-04-06T00:49:53.926Z,4.93
2023-04-06T00:52:21.625Z,3.83
2023-04-06T00:54:48.741Z,6.83
2023-04-06T00:57:16.317Z,4.80
2023-04-06T00:59:43.702Z,7.03
2023-04-06T01:02:12.035Z,6.23
2023-04-06T01:04:39.057Z,5.40
2023-04-06T01:07:06.067Z,7.20
2023-04-06T01:09:32.956Z,6.23
2023-04-06T01:12:00.181Z,7.40
2023-04-06T01:14:27.189Z,5.57
2023-04-06T01:16:54.298Z,6.90
2023-04-06T01:19:24.618Z,7.43
2023-04-06T01:21:54.086Z,6.17
2023-04-06T01:24:22.931Z,6.33
2023-04-06T01:26:49.876Z,6.37
2023-04-06T01:29:16.887Z,4.90
2023-04-06T01:31:43.992Z,6.27
2023-04-06T01:34:11.244Z,7.97
2023-04-06T01:36:38.311Z,7.17
2023-04-06T01:39:05.281Z,9.77
2023-04-06T01:41:33.883Z,8.53
2023-04-06T01:44:01.022Z,6.67
2023-04-06T01:46:27.934Z,8.20
2023-04-06T01:48:54.957Z,7.43
2023-04-06T01:51:21.958Z,8.37
2023-04-06T01:53:50.189Z,7.53
2023-04-06T01:56:17.078Z,7.70
2023-04-06T01:58:45.548Z,9.80
2023-04-06T02:01:12.677Z,7.20
2023-04-06T02:03:39.641Z,8.93
2023-04-06T02:06:06.935Z,8.13
2023-04-06T02:08:33.783Z,8.13
2023-04-06T02:11:00.810Z,7.73
2023-04-06T02:13:27.765Z,6.57
2023-04-06T02:15:56.044Z,8.57
2023-04-06T02:18:23.460Z,7.30
2023-04-06T02:20:50.498Z,5.97
2023-04-06T02:23:17.501Z,6.90
2023-04-06T02:25:44.472Z,4.77
2023-04-06T02:28:11.455Z,5.73
2023-04-06T02:30:38.401Z,9.77
2023-04-06T02:33:06.760Z,6.00
2023-04-06T02:35:33.790Z,4.47
2023-04-06T02:38:03.818Z,4.60
2023-04-06T02:40:30.839Z,3.60
2023-04-06T02:42:57.742Z,5.63
2023-04-06T02:45:24.625Z,7.67
2023-04-06T02:47:51.547Z,8.87
2023-04-06T02:50:19.758Z,6.20
2023-04-06T02:52:46.652Z,5.67
2023-04-06T02:55:13.651Z,8.00
2023-04-06T02:57:40.610Z,7.27
2023-04-06T03:00:08.690Z,7.23
2023-04-06T03:02:35.678Z,6.50
2023-04-06T03:05:04.385Z,9.40
2023-04-06T03:07:32.760Z,9.30
2023-04-06T03:09:59.741Z,5.77
2023-04-06T03:12:26.607Z,5.83
2023-04-06T03:14:53.492Z,8.90
2023-04-06T03:17:20.423Z,6.50
2023-04-06T03:19:47.409Z,7.00
2023-04-06T03:22:14.332Z,5.03
2023-04-06T03:24:42.573Z,7.00
2023-04-06T03:27:09.514Z,4.93
2023-04-06T03:29:36.684Z,5.40
2023-04-06T03:32:03.738Z,8.27
2023-04-06T03:34:30.623Z,5.27
2023-04-06T03:37:09.292Z,6.13
2023-04-06T03:39:37.260Z,6.73
2023-04-06T03:42:05.718Z,6.67
2023-04-06T03:44:32.899Z,4.50
2023-04-06T03:46:59.907Z,6.20
2023-04-06T03:49:26.968Z,6.97
2023-04-06T03:51:54.261Z,6.43
2023-04-06T03:54:21.127Z,3.60
2023-04-06T03:56:48.004Z,4.97
2023-04-06T03:59:16.525Z,9.23
2023-04-06T04:01:43.617Z,3.70
2023-04-06T04:04:11.150Z,5.80
2023-04-06T04:06:38.196Z,4.03
2023-04-06T04:09:05.241Z,5.07
2023-04-06T04:11:32.171Z,8.37
2023-04-06T04:13:59.138Z,3.77
2023-04-06T04:16:27.863Z,4.43
2023-04-06T04:18:54.880Z,4.33
2023-04-06T04:21:21.832Z,3.93
2023-04-06T04:23:48.767Z,6.80
2023-04-06T04:26:15.653Z,5.43
2023-04-06T04:28:42.557Z,5.17
2023-04-06T04:31:09.478Z,7.23
2023-04-06T04:33:37.811Z,7.67
2023-04-06T04:36:05.396Z,7.70
2023-04-06T04:38:32.455Z,6.40
2023-04-06T04:40:59.371Z,7.97
2023-04-06T04:43:26.236Z,7.13
2023-04-06T04:45:53.554Z,7.50
2023-04-06T04:48:20.752Z,10.60
2023-04-06T04:50:48.971Z,5.67
2023-04-06T04:53:16.013Z,7.00
2023-04-06T04:55:42.823Z,8.17
2023-04-06T04:58:10.490Z,6.10
2023-04-06T05:00:37.367Z,7.73
2023-04-06T05:03:05.911Z,8.53
2023-04-06T05:05:32.939Z,10.27
2023-04-06T05:08:01.402Z,8.67
2023-04-06T05:10:28.329Z,9.53
2023-04-06T05:12:55.476Z,10.23
2023-04-06T05:15:22.435Z,7.60
2023-04-06T05:17:49.302Z,8.43
2023-04-06T05:20:16.996Z,10.07
2023-04-06T05:22:44.875Z,9.80
2023-04-06T05:25:13.555Z,8.50
2023-04-06T05:27:41.393Z,7.40
2023-04-06T05:30:09.385Z,7.93
2023-04-06T05:32:36.624Z,7.13
2023-04-06T05:35:03.580Z,10.37
2023-04-06T05:37:30.501Z,7.60
2023-04-06T05:39:57.315Z,8.80
2023-04-06T05:42:25.594Z,8.33
2023-04-06T05:44:52.543Z,11.73
2023-04-06T05:47:19.571Z,7.47
2023-04-06T05:49:46.470Z,8.63
2023-04-06T05:52:13.480Z,7.47
2023-04-06T05:54:40.968Z,8.83
2023-04-06T05:57:07.909Z,8.83
2023-04-06T05:59:36.401Z,13.03
2023-04-06T06:02:03.340Z,12.00
2023-04-06T06:04:31.418Z,8.07
2023-04-06T06:06:58.464Z,8.70
2023-04-06T06:09:25.461Z,14.60
2023-04-06T06:11:52.522Z,11.67
2023-04-06T06:14:19.548Z,9.43
2023-04-06T06:16:47.883Z,8.23
2023-04-06T06:19:14.900Z,13.47
2023-04-06T06:21:41.799Z,11.87
2023-04-06T06:24:09.115Z,9.93
2023-04-06T06:26:37.974Z,13.90
2023-04-06T06:29:07.198Z,9.60
2023-04-06T06:31:34.376Z,10.77
2023-04-06T06:34:02.993Z,10.33
2023-04-06T06:36:31.646Z,12.63
2023-04-06T06:38:59.302Z,18.23
2023-04-06T06:41:27.102Z,27.83
2023-04-06T06:43:54.050Z,29.60
2023-04-06T06:46:21.702Z,20.07
2023-04-06T06:48:48.649Z,11.50
2023-04-06T06:51:16.940Z,18.17
2023-04-06T06:53:43.861Z,11.83
2023-04-06T06:56:10.775Z,13.70
2023-04-06T06:58:37.708Z,12.80
2023-04-06T07:01:06.223Z,14.27
2023-04-06T07:03:33.320Z,11.60
2023-04-06T07:06:00.671Z,10.20
2023-04-06T07:08:29.088Z,11.43
2023-04-06T07:10:58.837Z,11.20
2023-04-06T07:13:27.840Z,10.77
2023-04-06T07:15:54.753Z,12.47
2023-04-06T07:18:21.894Z,10.17
2023-04-06T07:20:48.894Z,11.30
2023-04-06T07:23:16.321Z,10.50
2023-04-06T07:25:44.658Z,10.33
2023-04-06T07:28:11.630Z,13.40
2023-04-06T07:30:39.303Z,15.17
2023-04-06T07:33:06.716Z,8.77
2023-04-06T07:35:35.162Z,13.00
2023-04-06T07:38:02.151Z,13.37
2023-04-06T07:40:29.240Z,10.70
2023-04-06T07:42:58.194Z,13.07
2023-04-06T07:45:25.218Z,11.33
2023-04-06T07:47:52.315Z,9.27
2023-04-06T07:50:19.392Z,12.57
2023-04-06T07:52:46.334Z,9.20
2023-04-06T07:55:13.365Z,10.87
2023-04-06T07:57:40.287Z,11.47
2023-04-06T08:00:10.549Z,11.73
2023-04-06T08:02:37.717Z,12.53
2023-04-06T08:05:05.258Z,11.23
2023-04-06T08:07:32.230Z,10.47
2023-04-06T08:09:59.144Z,12.93
2023-04-06T08:12:26.150Z,12.77
2023-04-06T08:14:53.096Z,14.17
2023-04-06T08:17:21.429Z,12.23
2023-04-06T08:19:48.375Z,10.67
2023-04-06T08:22:15.326Z,12.03
2023-04-06T08:24:42.304Z,13.57
2023-04-06T08:27:09.319Z,14.07
2023-04-06T08:29:36.280Z,18.30
2023-04-06T08:32:06.032Z,9.63
2023-04-06T08:34:34.799Z,14.60
2023-04-06T08:37:01.735Z,13.57
2023-04-06T08:39:29.181Z,12.87
2023-04-06T08:41:58.021Z,15.00
2023-04-06T08:44:25.352Z,13.53
2023-04-06T08:46:53.820Z,15.73
2023-04-06T08:49:21.332Z,10.57
2023-04-06T08:51:50.710Z,14.97
2023-04-06T08:54:17.920Z,11.50
2023-04-06T08:56:45.227Z,12.47
2023-04-06T08:59:12.789Z,11.43
2023-04-06T09:01:44.230Z,12.60
2023-04-06T09:04:13.467Z,12.13
2023-04-06T09:06:41.757Z,10.87
2023-04-06T09:09:10.302Z,12.57
2023-04-06T09:11:48.831Z,13.53
2023-04-06T09:14:16.396Z,12.27
2023-04-06T09:16:44.419Z,11.10
2023-04-06T09:19:12.572Z,12.87
2023-04-06T09:21:40.812Z,10.50
2023-04-06T09:24:08.733Z,12.47
2023-04-06T09:26:47.990Z,13.73
2023-04-06T09:29:27.978Z,13.10
2023-04-06T09:32:04.323Z,15.30
2023-04-06T09:34:31.550Z,12.23
2023-04-06T09:36:59.385Z,12.57
2023-04-06T09:39:26.832Z,14.40
2023-04-06T09:41:56.664Z,11.47
2023-04-06T09:44:24.942Z,11.50
2023-04-06T09:47:00.313Z,14.00
2023-04-06T09:49:29.071Z,15.30
2023-04-06T09:52:00.217Z,12.23
2023-04-06T09:54:31.274Z,12.00
2023-04-06T09:57:04.854Z,14.43
2023-04-06T09:59:41.336Z,13.53
2023-04-06T10:02:16.580Z,15.27
2023-04-06T10:04:50.868Z,14.30
2023-04-06T10:07:18.692Z,12.47
2023-04-06T10:09:47.261Z,12.73
2023-04-06T10:12:16.829Z,14.50
2023-04-06T10:14:44.958Z,12.77
2023-04-06T10:17:12.677Z,11.97
2023-04-06T10:19:47.887Z,15.67
2023-04-06T10:22:22.091Z,13.63
2023-04-06T10:24:49.077Z,10.03
2023-04-06T10:27:17.322Z,13.33
2023-04-06T10:29:46.239Z,16.20
2023-04-06T10:32:13.509Z,14.33
2023-04-06T10:34:40.584Z,14.20
2023-04-06T10:37:19.932Z,8.93
2023-04-06T10:39:47.934Z,12.07
2023-04-06T10:42:15.265Z,12.40
2023-04-06T10:44:47.832Z,13.43
2023-04-06T10:47:18.997Z,18.60
2023-04-06T10:49:46.067Z,13.87
2023-04-06T10:52:13.389Z,12.77
2023-04-06T10:54:46.948Z,12.73
2023-04-06T10:57:15.322Z,11.87
2023-04-06T10:59:45.537Z,13.53
2023-04-06T11:02:21.867Z,15.60
2023-04-06T11:04:57.009Z,14.20
2023-04-06T11:07:27.062Z,9.60
2023-04-06T11:10:12.567Z,12.43
2023-04-06T11:12:42.357Z,13.80
2023-04-06T11:15:11.562Z,12.70
2023-04-06T11:17:38.769Z,13.10
2023-04-06T11:20:12.035Z,15.40
2023-04-06T11:22:49.627Z,15.07
2023-04-06T11:25:17.955Z,12.77
2023-04-06T11:27:46.518Z,12.50
2023-04-06T11:30:15.775Z,14.60
2023-04-06T11:32:43.768Z,12.90
2023-04-06T11:35:13.572Z,12.03
2023-04-06T11:37:40.838Z,14.03
2023-04-06T11:40:09.968Z,15.10
2023-04-06T11:42:36.893Z,13.47
2023-04-06T11:45:04.516Z,15.27
2023-04-06T11:47:34.695Z,14.90
2023-04-06T11:50:07.937Z,16.77
2023-04-06T11:52:35.069Z,13.73
2023-04-06T11:55:12.582Z,15.33
2023-04-06T11:57:39.760Z,16.37
2023-04-06T12:00:07.899Z,13.03
2023-04-06T12:02:37.160Z,14.03
2023-04-06T12:05:06.265Z,13.60
2023-04-06T12:07:33.821Z,12.07
2023-04-06T12:10:01.336Z,16.00
2023-04-06T12:12:28.246Z,12.23
2023-04-06T12:14:56.182Z,19.57
2023-04-06T12:17:24.213Z,16.43
2023-04-06T12:19:52.613Z,13.67
2023-04-06T12:22:20.185Z,15.87
2023-04-06T12:24:47.065Z,14.03
2023-04-06T12:27:13.961Z,13.00
2023-04-06T12:29:40.916Z,15.77
2023-04-06T12:32:07.931Z,11.43
2023-04-06T12:34:34.991Z,12.80
2023-04-06T12:37:03.307Z,13.40
2023-04-06T12:39:31.015Z,12.70
2023-04-06T12:41:58.192Z,16.47
2023-04-06T12:44:26.822Z,15.00
2023-04-06T12:46:54.155Z,13.63
2023-04-06T12:49:21.253Z,13.13
2023-04-06T12:51:48.393Z,19.40
2023-04-06T12:54:16.661Z,12.50
2023-04-06T12:56:43.615Z,12.87
2023-04-06T12:59:10.756Z,10.23
2023-04-06T13:01:38.249Z,11.90
2023-04-06T13:04:05.221Z,14.07
2023-04-06T13:06:32.263Z,12.50
2023-04-06T13:08:59.247Z,10.80
2023-04-06T13:11:28.740Z,11.67
2023-04-06T13:13:55.940Z,9.97
2023-04-06T13:16:23.024Z,12.97
2023-04-06T13:18:51.105Z,9.83
2023-04-06T13:21:18.531Z,12.23
2023-04-06T13:23:45.735Z,9.83
2023-04-06T13:26:14.474Z,11.13
2023-04-06T13:28:43.192Z,10.73
2023-04-06T13:31:10.876Z,14.00
2023-04-06T13:33:38.151Z,11.07
2023-04-06T13:36:07.159Z,11.33
2023-04-06T13:38:34.640Z,9.97
2023-04-06T13:41:01.653Z,9.77
2023-04-06T13:43:28.599Z,10.03
2023-04-06T13:45:59.620Z,10.13
2023-04-06T13:48:29.658Z,11.60
2023-04-06T13:50:56.719Z,10.50
2023-04-06T13:53:23.612Z,12.33
2023-04-06T13:55:54.898Z,11.70
2023-04-06T13:58:21.748Z,9.40
2023-04-06T14:00:48.812Z,10.90
2023-04-06T14:03:17.305Z,9.80
2023-04-06T14:05:44.216Z,9.87
2023-04-06T14:08:11.085Z,9.13
2023-04-06T14:10:38.862Z,11.27
2023-04-06T14:13:05.698Z,11.00
2023-04-06T14:15:32.470Z,10.43
2023-04-06T14:17:59.349Z,12.13
2023-04-06T14:20:27.622Z,10.57
2023-04-06T14:22:55.437Z,12.20
2023-04-06T14:25:22.578Z,8.97
2023-04-06T14:27:49.426Z,11.60
2023-04-06T14:30:16.476Z,7.60
2023-04-06T14:32:43.680Z,8.47
2023-04-06T14:35:11.219Z,8.57
2023-04-06T14:37:39.355Z,8.00
2023-04-06T14:40:07.555Z,8.33
2023-04-06T14:42:34.709Z,11.10
2023-04-06T14:45:01.501Z,7.50
2023-04-06T14:47:28.361Z,8.93
2023-04-06T14:49:55.464Z,10.10
2023-04-06T14:52:22.381Z,11.73
2023-04-06T14:54:50.636Z,11.47
2023-04-06T14:57:17.436Z,12.67
2023-04-06T14:59:44.286Z,10.03
2023-04-06T15:02:11.253Z,8.33
2023-04-06T15:04:38.396Z,8.80
2023-04-06T15:07:05.335Z,11.07
2023-04-06T15:09:32.318Z,7.87
2023-04-06T15:12:01.687Z,12.33
2023-04-06T15:14:28.596Z,10.40
2023-04-06T15:16:55.517Z,9.13
2023-04-06T15:19:22.467Z,8.83
2023-04-06T15:21:49.305Z,8.10
2023-04-06T15:24:16.270Z,7.33
2023-04-06T15:26:43.127Z,10.17
2023-04-06T15:29:11.420Z,13.17
2023-04-06T15:31:39.438Z,8.27
2023-04-06T15:34:08.967Z,12.70
2023-04-06T15:36:36.613Z,9.67
2023-04-06T15:39:04.331Z,10.33
2023-04-06T15:41:31.602Z,8.40
2023-04-06T15:43:58.579Z,8.17
2023-04-06T15:46:29.872Z,8.47
2023-04-06T15:48:56.732Z,8.57
2023-04-06T15:51:24.263Z,7.50
2023-04-06T15:53:51.313Z,7.67
2023-04-06T15:56:18.169Z,6.83
2023-04-06T15:58:45.543Z,6.40
2023-04-06T16:01:13.552Z,4.47
2023-04-06T16:03:42.286Z,5.13
2023-04-06T16:06:09.703Z,8.40
2023-04-06T16:08:37.292Z,6.60
2023-04-06T16:11:04.438Z,6.40
2023-04-06T16:13:31.346Z,7.80
2023-04-06T16:15:58.287Z,6.30
2023-04-06T16:18:25.713Z,7.47
2023-04-06T16:20:53.921Z,6.67
2023-04-06T16:23:20.765Z,6.63
2023-04-06T16:25:47.761Z,6.80
2023-04-06T16:28:14.712Z,8.13
2023-04-06T16:30:43.639Z,6.20
2023-04-06T16:33:13.688Z,8.27
2023-04-06T16:35:43.822Z,7.43
2023-04-06T16:38:11.963Z,7.33
2023-04-06T16:40:38.970Z,8.57
2023-04-06T16:43:05.905Z,7.13
2023-04-06T16:45:33.028Z,6.97
2023-04-06T16:47:59.912Z,7.17
2023-04-06T16:50:27.049Z,6.83
2023-04-06T16:52:53.892Z,7.20
2023-04-06T16:55:22.003Z,8.07
2023-04-06T16:57:49.335Z,8.13
2023-04-06T17:00:17.358Z,7.23
2023-04-06T17:02:47.081Z,7.80
2023-04-06T17:05:14.185Z,9.33
2023-04-06T17:07:41.122Z,5.97
2023-04-06T17:10:09.022Z,5.70
2023-04-06T17:12:37.329Z,5.00
2023-04-06T17:15:04.550Z,6.40
2023-04-06T17:17:31.370Z,5.33
2023-04-06T17:19:58.232Z,4.60
2023-04-06T17:22:25.383Z,5.43
2023-04-06T17:24:52.208Z,5.10
2023-04-06T17:27:22.824Z,4.20
2023-04-06T17:29:50.979Z,5.73
2023-04-06T17:32:19.436Z,5.30
2023-04-06T17:34:46.384Z,6.50
2023-04-06T17:37:13.272Z,3.33
2023-04-06T17:39:40.221Z,4.37
2023-04-06T17:42:07.029Z,3.57
2023-04-06T17:44:33.966Z,3.93
2023-04-06T17:47:02.148Z,4.23
2023-04-06T17:49:29.149Z,6.47
2023-04-06T17:51:56.009Z,6.63
2023-04-06T17:54:22.825Z,3.97
2023-04-06T17:56:51.437Z,6.57
2023-04-06T17:59:18.332Z,3.70
2023-04-06T18:01:45.513Z,4.93
2023-04-06T18:04:13.794Z,4.90
2023-04-06T18:06:40.623Z,6.87
2023-04-06T18:09:07.466Z,5.27
2023-04-06T18:11:34.348Z,5.53
2023-04-06T18:14:01.185Z,5.33
2023-04-06T18:16:28.416Z,6.73
2023-04-06T18:18:56.352Z,4.77
2023-04-06T18:21:24.713Z,4.50
2023-04-06T18:23:52.242Z,5.43
2023-04-06T18:26:21.066Z,7.47
2023-04-06T18:28:47.992Z,5.17
2023-04-06T18:31:14.893Z,6.33
2023-04-06T18:33:41.758Z,6.30
2023-04-06T18:36:09.839Z,5.13
2023-04-06T18:38:42.077Z,7.80
2023-04-06T18:41:08.987Z,4.90
2023-04-06T18:43:36.868Z,6.07
2023-04-06T18:46:04.334Z,5.67
2023-04-06T18:48:31.244Z,7.10
2023-04-06T18:51:01.846Z,5.07
2023-04-06T18:53:28.893Z,6.73
2023-04-06T18:55:57.715Z,6.93
2023-04-06T18:58:27.696Z,5.43
2023-04-06T19:00:55.181Z,5.70
2023-04-06T19:03:23.545Z,6.43
2023-04-06T19:05:50.535Z,6.50
2023-04-06T19:08:17.367Z,5.43
2023-04-06T19:10:44.202Z,8.80
2023-04-06T19:13:12.357Z,5.07
2023-04-06T19:15:42.234Z,4.57
2023-04-06T19:18:09.172Z,5.80
2023-04-06T19:20:36.109Z,8.87
2023-04-06T19:23:03.855Z,6.00
2023-04-06T19:25:31.375Z,10.17
2023-04-06T19:27:58.206Z,5.93
2023-04-06T19:30:26.640Z,8.13
2023-04-06T19:32:53.605Z,7.30
2023-04-06T19:35:20.667Z,8.77
2023-04-06T19:37:47.486Z,6.23
2023-04-06T19:40:14.280Z,6.93
2023-04-06T19:42:41.112Z,5.50
2023-04-06T19:45:08.891Z,8.20
2023-04-06T19:47:37.289Z,6.83
2023-04-06T19:50:05.545Z,6.10
2023-04-06T19:52:32.824Z,7.97
2023-04-06T19:54:59.919Z,7.57
2023-04-06T19:57:27.395Z,7.73
2023-04-06T19:59:55.244Z,9.23
2023-04-06T20:02:22.530Z,8.97
2023-04-06T20:04:50.955Z,7.23
2023-04-06T20:07:17.831Z,7.33
2023-04-06T20:09:45.136Z,8.63
2023-04-06T20:12:11.969Z,8.57
2023-04-06T20:14:38.863Z,9.40
2023-04-06T20:17:05.927Z,10.13
2023-04-06T20:19:32.795Z,10.80
2023-04-06T20:22:03.548Z,8.33
2023-04-06T20:24:31.275Z,7.73
2023-04-06T20:26:58.123Z,7.37
2023-04-06T20:29:25.098Z,10.60
2023-04-06T20:31:52.038Z,7.80
2023-04-06T20:34:19.251Z,9.30
2023-04-06T20:36:46.540Z,8.93
2023-04-06T20:39:14.763Z,11.37
2023-04-06T20:41:42.298Z,8.33
2023-04-06T20:44:09.187Z,11.03
2023-04-06T20:46:36.401Z,9.27
2023-04-06T20:49:03.577Z,8.33
2023-04-06T20:51:31.363Z,10.03
2023-04-06T20:53:58.286Z,12.40
2023-04-06T20:56:26.719Z,8.97
2023-04-06T20:58:53.909Z,9.77
2023-04-06T21:01:21.076Z,11.10
2023-04-06T21:03:47.995Z,13.17
2023-04-06T21:06:14.962Z,8.03
2023-04-06T21:08:42.173Z,8.37
2023-04-06T21:11:09.065Z,10.30
2023-04-06T21:13:37.305Z,10.33
2023-04-06T21:16:04.571Z,12.87
2023-04-06T21:18:31.934Z,14.10
2023-04-06T21:20:59.261Z,14.87
2023-04-06T21:23:26.106Z,10.77
2023-04-06T21:25:56.725Z,13.27
2023-04-06T21:28:24.277Z,11.50
2023-04-06T21:30:52.614Z,10.77
2023-04-06T21:33:19.654Z,12.17
2023-04-06T21:35:46.452Z,11.90
2023-04-06T21:38:13.399Z,12.63
2023-04-06T21:40:40.316Z,10.43
2023-04-06T21:43:07.181Z,13.13
2023-04-06T21:45:34.051Z,12.17
2023-04-06T21:48:02.272Z,11.57
2023-04-06T21:50:29.297Z,14.63
2023-04-06T21:52:56.230Z,11.83
2023-04-06T21:55:23.034Z,11.87
2023-04-06T21:57:49.854Z,11.87
2023-04-06T22:00:18.518Z,12.63
2023-04-06T22:02:45.792Z,15.73
2023-04-06T22:05:14.278Z,12.30
2023-04-06T22:07:41.273Z,13.13
2023-04-06T22:10:08.744Z,13.20
2023-04-06T22:12:35.652Z,15.23
2023-04-06T22:15:02.578Z,14.00
2023-04-06T22:17:29.693Z,14.77
2023-04-06T22:19:56.553Z,14.97
2023-04-06T22:22:25.817Z,14.47
2023-04-06T22:24:52.752Z,15.50
2023-04-06T22:27:19.624Z,14.50
2023-04-06T22:29:46.491Z,15.80
2023-04-06T22:32:13.414Z,18.70
2023-04-06T22:34:40.527Z,16.77
2023-04-06T22:37:07.420Z,15.00
2023-04-06T22:39:35.814Z,18.97
2023-04-06T22:42:02.719Z,17.83
2023-04-06T22:44:29.521Z,17.00
2023-04-06T22:46:56.378Z,20.13
2023-04-06T22:49:23.307Z,19.87
2023-04-06T22:51:50.789Z,18.57
2023-04-06T22:54:19.836Z,20.07
2023-04-06T22:56:48.058Z,18.23
2023-04-06T22:59:14.796Z,18.90
2023-04-06T23:01:41.744Z,20.17
2023-04-06T23:04:08.746Z,20.47
2023-04-06T23:06:35.580Z,21.33
2023-04-06T23:09:02.417Z,20.60
2023-04-06T23:11:29.382Z,20.23
2023-04-06T23:13:57.535Z,23.00
2023-04-06T23:16:24.411Z,19.67
2023-04-06T23:18:51.301Z,22.77
2023-04-06T23:21:18.141Z,21.77
2023-04-06T23:23:44.970Z,21.10
2023-04-06T23:26:11.863Z,20.83
2023-04-06T23:28:38.619Z,20.50
2023-04-06T23:31:06.763Z,22.17
2023-04-06T23:33:33.734Z,21.03
2023-04-06T23:36:00.710Z,20.30
2023-04-06T23:38:27.505Z,24.03
2023-04-06T23:40:54.296Z,21.90
2023-04-06T23:43:21.173Z,21.57
2023-04-06T23:45:48.019Z,23.27
2023-04-06T23:48:16.401Z,23.17
2023-04-06T23:50:43.229Z,24.87
2023-04-06T23:53:10.078Z,22.40
2023-04-06T23:55:37.184Z,24.10
2023-04-06T23:58:04.131Z,21.17
